createdAt,value
2023-01-24T00:01:18.264Z,3.77
2023-01-24T00:03:46.599Z,3.80
2023-01-24T00:06:15.157Z,3.86
2023-01-24T00:08:43.413Z,3.88
2023-01-24T00:11:12.392Z,3.86
2023-01-24T00:13:40.604Z,3.83
2023-01-24T00:16:20.101Z,3.80
2023-01-24T00:18:48.921Z,3.81
2023-01-24T00:21:23.666Z,3.75
2023-01-24T00:23:53.686Z,3.56
2023-01-24T00:26:22.916Z,3.37
2023-01-24T00:28:52.289Z,3.21
2023-01-24T00:31:20.617Z,3.07
2023-01-24T00:33:49.256Z,3.02
2023-01-24T00:36:21.231Z,3.02
2023-01-24T00:38:49.483Z,2.99
2023-01-24T00:41:17.684Z,2.95
2023-01-24T00:43:46.657Z,2.85
2023-01-24T00:46:15.006Z,2.71
2023-01-24T00:48:45.900Z,2.66
2023-01-24T00:51:15.611Z,2.67
2023-01-24T00:53:44.020Z,2.64
2023-01-24T00:56:12.193Z,2.57
2023-01-24T00:58:40.549Z,2.51
2023-01-24T01:01:08.981Z,2.46
2023-01-24T01:03:38.840Z,2.47
2023-01-24T01:06:09.040Z,2.50
2023-01-24T01:08:37.727Z,2.51
2023-01-24T01:11:06.309Z,2.50
2023-01-24T01:13:34.682Z,2.46
2023-01-24T01:16:07.273Z,2.42
2023-01-24T01:18:36.087Z,2.42
2023-01-24T01:21:04.596Z,2.40
2023-01-24T01:23:33.505Z,2.35
2023-01-24T01:26:02.550Z,2.31
2023-01-24T01:28:30.792Z,2.28
2023-01-24T03:41:04.546Z,1.28
2023-01-24T03:43:33.693Z,1.68
2023-01-24T03:46:01.967Z,1.69
2023-01-24T03:48:40.131Z,1.73
2023-01-24T03:51:28.137Z,1.82
2023-01-24T03:53:56.660Z,1.85
2023-01-24T03:56:28.937Z,1.80
2023-01-24T03:58:59.856Z,1.71
2023-01-24T04:01:30.447Z,1.73
2023-01-24T04:04:08.722Z,1.80
2023-01-24T04:06:36.875Z,1.84
2023-01-24T04:09:06.470Z,1.85
2023-01-24T04:11:35.350Z,1.83
2023-01-24T04:14:09.365Z,1.80
2023-01-24T04:16:40.926Z,1.84
2023-01-24T04:19:17.328Z,1.88
2023-01-24T04:21:45.542Z,1.88
2023-01-24T04:24:14.164Z,1.87
2023-01-24T04:26:44.582Z,1.78
2023-01-24T04:29:17.214Z,1.71
2023-01-24T04:31:46.748Z,1.72
2023-01-24T04:34:36.915Z,1.77
2023-01-24T04:37:05.667Z,1.75
2023-01-24T04:39:33.858Z,1.67
2023-01-24T04:42:11.940Z,1.58
2023-01-24T04:44:40.432Z,1.52
2023-01-24T04:47:10.866Z,1.54
2023-01-24T04:49:40.604Z,1.59
2023-01-24T04:52:12.244Z,1.53
2023-01-24T04:55:01.043Z,1.38
2023-01-24T04:57:30.520Z,1.29
2023-01-24T04:59:58.677Z,1.23
2023-01-24T05:02:33.758Z,1.25
2023-01-24T05:05:03.031Z,1.26
2023-01-24T05:07:31.394Z,1.24
2023-01-24T05:10:03.166Z,1.21
2023-01-24T05:12:31.911Z,1.19
2023-01-24T05:15:02.924Z,1.15
2023-01-24T05:17:31.735Z,1.15
2023-01-24T05:20:00.172Z,1.20
2023-01-24T05:22:29.507Z,1.22
2023-01-24T05:24:57.749Z,1.20
2023-01-24T05:27:26.380Z,1.18
2023-01-24T05:29:58.625Z,1.14
2023-01-24T05:32:27.969Z,1.16
2023-01-24T05:34:56.113Z,1.21
2023-01-24T05:37:24.978Z,1.22
2023-01-24T05:39:53.271Z,1.19
2023-01-24T05:42:21.412Z,1.13
2023-01-24T05:44:51.826Z,1.08
2023-01-24T05:47:20.239Z,1.09
2023-01-24T05:49:49.360Z,1.15
2023-01-24T05:52:22.737Z,1.20
2023-01-24T05:54:53.140Z,1.17
2023-01-24T05:57:31.505Z,1.09
2023-01-24T06:00:19.372Z,1.04
2023-01-24T06:03:11.166Z,1.07
2023-01-24T06:05:39.805Z,1.11
2023-01-24T06:08:10.171Z,1.12
2023-01-24T06:10:39.608Z,1.08
2023-01-24T06:13:13.164Z,1.09
2023-01-24T06:15:41.912Z,1.10
2023-01-24T06:18:15.384Z,1.16
2023-01-24T06:20:45.079Z,1.24
2023-01-24T06:23:21.966Z,1.27
2023-01-24T06:25:50.548Z,1.26
2023-01-24T06:28:18.874Z,1.25
2023-01-24T06:31:42.939Z,1.23
2023-01-24T06:34:26.412Z,1.29
2023-01-24T06:37:15.947Z,1.34
2023-01-24T06:39:52.792Z,1.34
2023-01-24T06:42:22.112Z,1.35
2023-01-24T06:44:50.416Z,1.35
2023-01-24T06:47:18.887Z,1.43
2023-01-24T06:49:47.132Z,1.54
2023-01-24T06:52:15.414Z,1.54
2023-01-24T06:54:43.565Z,1.50
2023-01-24T06:57:11.710Z,1.46
2023-01-24T06:59:40.918Z,1.44
2023-01-24T07:02:11.014Z,1.48
2023-01-24T07:04:39.074Z,1.54
2023-01-24T10:21:41.835Z,1.33
2023-01-24T10:24:22.523Z,1.77
2023-01-24T10:26:52.362Z,1.85
2023-01-24T10:29:28.346Z,1.95
2023-01-24T10:32:05.064Z,2.04
2023-01-24T10:34:43.109Z,2.00
2023-01-24T10:37:17.184Z,1.90
2023-01-24T10:39:46.045Z,1.82
2023-01-24T10:42:33.332Z,1.76
2023-01-24T10:45:24.708Z,1.83
2023-01-24T10:48:32.569Z,1.92
2023-01-24T10:51:21.768Z,1.97
2023-01-24T10:53:56.062Z,1.91
2023-01-24T10:56:24.439Z,1.85
2023-01-24T10:59:13.747Z,1.79
2023-01-24T11:01:48.192Z,1.73
2023-01-24T11:04:26.689Z,1.78
2023-01-24T11:06:54.965Z,1.82
2023-01-24T11:09:30.939Z,1.76
2023-01-24T11:11:59.935Z,1.62
2023-01-24T11:14:33.824Z,1.47
2023-01-24T11:17:02.618Z,1.44
2023-01-24T11:19:40.304Z,1.42
2023-01-24T11:22:23.436Z,1.36
2023-01-24T11:24:53.847Z,1.24
2023-01-24T11:27:33.626Z,1.15
2023-01-24T11:30:14.350Z,1.17
2023-01-24T11:33:04.820Z,1.22
2023-01-24T11:35:38.718Z,1.22
2023-01-24T11:38:42.519Z,1.16
2023-01-24T11:41:11.857Z,1.10
2023-01-24T11:43:43.422Z,1.11
2023-01-24T11:46:25.904Z,1.16
2023-01-24T11:49:00.238Z,1.07
2023-01-24T11:51:31.511Z,1.01
2023-01-24T11:54:09.134Z,0.93
2023-01-24T11:57:02.049Z,0.85
2023-01-24T11:59:42.908Z,0.85
2023-01-24T12:02:19.693Z,0.80
2023-01-24T12:05:06.350Z,0.70
2023-01-24T12:08:12.780Z,0.63
2023-01-24T12:11:38.453Z,0.71
2023-01-24T12:14:21.886Z,0.79
2023-01-24T12:17:32.069Z,0.80
2023-01-24T12:20:31.030Z,0.76
2023-01-24T12:23:22.360Z,0.71
2023-01-24T12:25:58.397Z,0.69
2023-01-24T12:28:44.770Z,0.74
2023-01-24T12:31:16.970Z,0.80
2023-01-24T12:33:51.164Z,0.79
2023-01-24T12:36:45.196Z,0.72
2023-01-24T12:39:20.696Z,0.67
2023-01-24T12:42:06.100Z,0.65
2023-01-24T12:44:43.034Z,0.70
2023-01-24T12:47:11.338Z,0.78
2023-01-24T12:50:05.543Z,0.82
2023-01-24T12:52:49.149Z,0.80
2023-01-24T12:55:26.366Z,0.77
2023-01-24T12:58:02.468Z,0.73
2023-01-24T13:00:42.878Z,0.77
2023-01-24T16:30:27.797Z,1.03
2023-01-24T16:32:56.342Z,1.46
2023-01-24T16:35:25.236Z,1.56
2023-01-24T16:37:53.709Z,1.68
2023-01-24T16:40:22.406Z,1.73
2023-01-24T16:42:50.664Z,1.75
2023-01-24T16:45:25.340Z,1.75
2023-01-24T16:47:55.156Z,1.73
2023-01-24T16:50:27.970Z,1.68
2023-01-24T16:52:59.890Z,1.67
2023-01-24T16:55:29.783Z,1.69
2023-01-24T16:58:00.893Z,1.68
2023-01-24T17:00:30.506Z,1.65
2023-01-24T17:03:00.114Z,1.62
2023-01-24T17:05:30.274Z,1.59
2023-01-24T17:08:02.123Z,1.56
2023-01-24T17:10:32.725Z,1.58
2023-01-24T17:13:21.283Z,1.63
2023-01-24T17:15:53.309Z,1.64
2023-01-24T17:18:25.541Z,1.63
2023-01-24T17:20:56.987Z,1.62
2023-01-24T17:23:44.875Z,1.60
2023-01-24T17:26:52.349Z,1.59
2023-01-24T17:29:30.839Z,1.57
2023-01-24T17:31:59.148Z,1.64
2023-01-24T17:34:27.614Z,1.68
2023-01-24T17:36:59.861Z,1.70
2023-01-24T17:39:50.283Z,1.67
2023-01-24T17:42:19.345Z,1.63
2023-01-24T17:44:47.993Z,1.60
2023-01-24T17:47:17.274Z,1.57
2023-01-24T17:49:50.355Z,1.61
2023-01-24T17:52:27.395Z,1.71
2023-01-24T17:54:57.769Z,1.76
2023-01-24T17:57:32.188Z,1.78
2023-01-24T18:00:15.842Z,1.78
2023-01-24T18:02:49.238Z,1.77
2023-01-24T18:05:17.305Z,1.75
2023-01-24T18:07:45.838Z,1.73
2023-01-24T18:10:15.308Z,1.79
2023-01-24T18:12:45.044Z,1.90
2023-01-24T18:15:14.198Z,1.96
2023-01-24T18:17:42.638Z,1.98
2023-01-24T18:20:24.550Z,1.97
2023-01-24T18:23:04.207Z,1.96
2023-01-24T18:25:43.570Z,1.94
2023-01-24T18:29:19.387Z,1.93
2023-01-24T18:32:01.537Z,2.02
2023-01-24T18:34:35.509Z,2.09
2023-01-24T18:37:05.461Z,2.10
2023-01-24T18:39:38.269Z,2.10
2023-01-24T18:42:08.351Z,2.08
2023-01-24T18:44:37.112Z,2.05
2023-01-24T18:47:05.521Z,2.02
2023-01-24T18:52:17.654Z,2.12
2023-01-24T18:54:58.305Z,2.15
2023-01-24T18:57:29.197Z,2.14
2023-01-24T18:59:57.328Z,2.10
2023-01-24T21:59:43.600Z,1.26
2023-01-24T22:02:17.883Z,1.69
2023-01-24T22:04:45.795Z,1.73
2023-01-24T22:07:17.290Z,1.80
2023-01-24T22:09:44.730Z,1.90
2023-01-24T22:12:14.723Z,1.95
2023-01-24T22:14:42.952Z,1.97
2023-01-24T22:17:18.808Z,1.97
2023-01-24T22:19:53.343Z,1.96
2023-01-24T22:22:29.922Z,2.01
2023-01-24T22:25:01.078Z,2.08
2023-01-24T22:27:28.233Z,2.12
2023-01-24T22:29:55.309Z,2.12
2023-01-24T22:32:22.657Z,2.11
2023-01-24T22:34:49.933Z,2.09
2023-01-24T22:37:30.359Z,2.06
2023-01-24T22:39:57.470Z,2.10
2023-01-24T22:42:24.370Z,2.17
2023-01-24T22:44:51.242Z,2.19
2023-01-24T22:47:18.987Z,2.18
2023-01-24T22:49:45.888Z,2.15
2023-01-24T22:52:12.896Z,2.11
2023-01-24T22:54:40.520Z,2.06
2023-01-24T22:57:07.612Z,2.08
2023-01-24T22:59:35.042Z,2.13
2023-01-24T23:02:03.550Z,2.14
2023-01-24T23:04:30.986Z,2.12
2023-01-24T23:06:57.917Z,2.10
2023-01-24T23:09:25.040Z,2.07
2023-01-24T23:11:51.712Z,2.05
2023-01-24T23:14:37.174Z,2.09
2023-01-24T23:17:04.768Z,2.16
2023-01-24T23:20:11.497Z,2.18
2023-01-24T23:22:38.252Z,2.13
2023-01-24T23:25:05.788Z,2.08
2023-01-24T23:27:34.702Z,2.06
2023-01-24T23:30:18.838Z,2.10
2023-01-24T23:32:46.505Z,2.18
2023-01-24T23:35:13.802Z,2.20
2023-01-24T23:37:40.687Z,2.18
2023-01-24T23:40:08.866Z,2.15
2023-01-24T23:42:35.921Z,2.12
2023-01-24T23:45:04.582Z,2.07
2023-01-24T23:47:32.295Z,2.11
2023-01-24T23:49:59.114Z,2.19
2023-01-24T23:52:25.926Z,2.22
2023-01-24T23:54:52.736Z,2.21
2023-01-24T23:57:19.668Z,2.19
2023-01-24T23:59:46.527Z,2.17
